sensor_id;sensor_type;location;lat;lon;timestamp;P1;durP1;ratioP1;P2;durP2;ratioP2
63738;SDS011;68816;45.558;10.070;2024-02-26T00:01:42;11.40;;;7.70;;
63738;SDS011;68816;45.558;10.070;2024-02-26T00:04:09;9.93;;;7.10;;
63738;SDS011;68816;45.558;10.070;2024-02-26T00:06:35;10.27;;;7.03;;
63738;SDS011;68816;45.558;10.070;2024-02-26T00:09:01;9.25;;;7.13;;
63738;SDS011;68816;45.558;10.070;2024-02-26T00:11:30;8.85;;;7.05;;
63738;SDS011;68816;45.558;10.070;2024-02-26T00:13:56;9.88;;;7.30;;
63738;SDS011;68816;45.558;10.070;2024-02-26T00:16:23;9.52;;;7.60;;
63738;SDS011;68816;45.558;10.070;2024-02-26T00:18:48;16.67;;;7.82;;
63738;SDS011;68816;45.558;10.070;2024-02-26T00:21:14;10.60;;;7.97;;
63738;SDS011;68816;45.558;10.070;2024-02-26T00:23:40;10.13;;;7.88;;
63738;SDS011;68816;45.558;10.070;2024-02-26T00:26:05;10.90;;;7.53;;
63738;SDS011;68816;45.558;10.070;2024-02-26T00:28:31;10.57;;;7.90;;
63738;SDS011;68816;45.558;10.070;2024-02-26T00:30:57;12.07;;;7.95;;
63738;SDS011;68816;45.558;10.070;2024-02-26T00:33:22;11.63;;;8.10;;
63738;SDS011;68816;45.558;10.070;2024-02-26T00:35:48;11.60;;;7.88;;
63738;SDS011;68816;45.558;10.070;2024-02-26T00:38:14;10.73;;;7.53;;
63738;SDS011;68816;45.558;10.070;2024-02-26T00:40:40;14.02;;;7.97;;
63738;SDS011;68816;45.558;10.070;2024-02-26T00:43:06;9.27;;;7.78;;
63738;SDS011;68816;45.558;10.070;2024-02-26T00:45:34;10.75;;;8.23;;
63738;SDS011;68816;45.558;10.070;2024-02-26T00:48:00;9.25;;;7.50;;
63738;SDS011;68816;45.558;10.070;2024-02-26T00:50:32;10.80;;;7.63;;
63738;SDS011;68816;45.558;10.070;2024-02-26T00:52:59;10.65;;;7.32;;
63738;SDS011;68816;45.558;10.070;2024-02-26T00:55:25;10.48;;;7.50;;
63738;SDS011;68816;45.558;10.070;2024-02-26T00:57:51;8.52;;;6.18;;
63738;SDS011;68816;45.558;10.070;2024-02-26T01:00:16;6.65;;;5.60;;
63738;SDS011;68816;45.558;10.070;2024-02-26T01:02:42;8.02;;;5.60;;
63738;SDS011;68816;45.558;10.070;2024-02-26T01:05:08;6.60;;;5.05;;
63738;SDS011;68816;45.558;10.070;2024-02-26T01:07:34;7.03;;;5.75;;
63738;SDS011;68816;45.558;10.070;2024-02-26T01:10:04;7.63;;;5.60;;
63738;SDS011;68816;45.558;10.070;2024-02-26T01:12:34;9.27;;;5.53;;
63738;SDS011;68816;45.558;10.070;2024-02-26T01:15:03;8.60;;;5.43;;
63738;SDS011;68816;45.558;10.070;2024-02-26T01:17:29;8.45;;;5.28;;
63738;SDS011;68816;45.558;10.070;2024-02-26T01:19:55;7.25;;;5.13;;
63738;SDS011;68816;45.558;10.070;2024-02-26T01:22:21;5.93;;;4.90;;
63738;SDS011;68816;45.558;10.070;2024-02-26T01:24:46;6.25;;;4.82;;
63738;SDS011;68816;45.558;10.070;2024-02-26T01:27:12;6.32;;;5.18;;
63738;SDS011;68816;45.558;10.070;2024-02-26T01:29:39;7.13;;;4.97;;
63738;SDS011;68816;45.558;10.070;2024-02-26T01:32:05;8.68;;;4.80;;
63738;SDS011;68816;45.558;10.070;2024-02-26T01:34:31;5.18;;;4.40;;
63738;SDS011;68816;45.558;10.070;2024-02-26T01:36:57;7.07;;;4.80;;
63738;SDS011;68816;45.558;10.070;2024-02-26T01:39:23;6.10;;;4.90;;
63738;SDS011;68816;45.558;10.070;2024-02-26T01:41:49;7.30;;;5.22;;
63738;SDS011;68816;45.558;10.070;2024-02-26T01:44:15;8.38;;;5.13;;
63738;SDS011;68816;45.558;10.070;2024-02-26T01:46:40;6.78;;;4.88;;
63738;SDS011;68816;45.558;10.070;2024-02-26T01:49:07;6.60;;;5.10;;
63738;SDS011;68816;45.558;10.070;2024-02-26T01:51:34;6.78;;;4.82;;
63738;SDS011;68816;45.558;10.070;2024-02-26T01:54:01;6.38;;;4.32;;
63738;SDS011;68816;45.558;10.070;2024-02-26T01:56:28;5.47;;;3.70;;
63738;SDS011;68816;45.558;10.070;2024-02-26T01:58:58;4.38;;;3.38;;
63738;SDS011;68816;45.558;10.070;2024-02-26T02:01:27;5.85;;;3.22;;
63738;SDS011;68816;45.558;10.070;2024-02-26T02:03:58;4.47;;;3.20;;
63738;SDS011;68816;45.558;10.070;2024-02-26T02:06:25;7.40;;;3.53;;
63738;SDS011;68816;45.558;10.070;2024-02-26T02:08:52;5.55;;;3.63;;
63738;SDS011;68816;45.558;10.070;2024-02-26T02:11:17;5.93;;;3.80;;
63738;SDS011;68816;45.558;10.070;2024-02-26T02:13:44;6.95;;;4.00;;
63738;SDS011;68816;45.558;10.070;2024-02-26T02:16:09;5.35;;;3.50;;
63738;SDS011;68816;45.558;10.070;2024-02-26T02:18:35;7.55;;;4.05;;
63738;SDS011;68816;45.558;10.070;2024-02-26T02:21:01;5.78;;;3.97;;
63738;SDS011;68816;45.558;10.070;2024-02-26T02:23:27;7.13;;;3.78;;
63738;SDS011;68816;45.558;10.070;2024-02-26T02:25:52;5.20;;;4.05;;
63738;SDS011;68816;45.558;10.070;2024-02-26T02:28:20;5.75;;;3.90;;
63738;SDS011;68816;45.558;10.070;2024-02-26T02:30:46;4.97;;;3.75;;
63738;SDS011;68816;45.558;10.070;2024-02-26T02:33:13;5.72;;;3.80;;
63738;SDS011;68816;45.558;10.070;2024-02-26T02:35:40;5.10;;;3.72;;
63738;SDS011;68816;45.558;10.070;2024-02-26T02:38:06;4.65;;;3.95;;
63738;SDS011;68816;45.558;10.070;2024-02-26T02:40:32;6.47;;;3.88;;
63738;SDS011;68816;45.558;10.070;2024-02-26T02:42:58;6.07;;;3.90;;
63738;SDS011;68816;45.558;10.070;2024-02-26T02:45:25;5.72;;;4.38;;
63738;SDS011;68816;45.558;10.070;2024-02-26T02:47:50;4.95;;;4.07;;
63738;SDS011;68816;45.558;10.070;2024-02-26T02:50:16;7.07;;;4.72;;
63738;SDS011;68816;45.558;10.070;2024-02-26T02:52:42;5.47;;;3.85;;
63738;SDS011;68816;45.558;10.070;2024-02-26T02:55:07;5.70;;;3.85;;
63738;SDS011;68816;45.558;10.070;2024-02-26T02:57:33;7.25;;;4.28;;
63738;SDS011;68816;45.558;10.070;2024-02-26T02:59:59;5.00;;;4.00;;
63738;SDS011;68816;45.558;10.070;2024-02-26T03:02:25;5.95;;;3.95;;
63738;SDS011;68816;45.558;10.070;2024-02-26T03:04:51;5.50;;;3.88;;
63738;SDS011;68816;45.558;10.070;2024-02-26T03:07:16;5.80;;;4.30;;
63738;SDS011;68816;45.558;10.070;2024-02-26T03:09:42;4.95;;;4.03;;
63738;SDS011;68816;45.558;10.070;2024-02-26T03:12:08;6.32;;;4.30;;
63738;SDS011;68816;45.558;10.070;2024-02-26T03:14:34;8.40;;;4.68;;
63738;SDS011;68816;45.558;10.070;2024-02-26T03:17:00;7.68;;;4.97;;
63738;SDS011;68816;45.558;10.070;2024-02-26T03:19:26;5.80;;;4.47;;
63738;SDS011;68816;45.558;10.070;2024-02-26T03:21:51;6.43;;;4.50;;
63738;SDS011;68816;45.558;10.070;2024-02-26T03:24:17;6.60;;;4.63;;
63738;SDS011;68816;45.558;10.070;2024-02-26T03:26:43;7.05;;;5.15;;
63738;SDS011;68816;45.558;10.070;2024-02-26T03:29:08;6.82;;;4.55;;
63738;SDS011;68816;45.558;10.070;2024-02-26T03:31:34;6.95;;;4.70;;
63738;SDS011;68816;45.558;10.070;2024-02-26T03:34:00;6.75;;;4.72;;
63738;SDS011;68816;45.558;10.070;2024-02-26T03:36:26;6.63;;;4.70;;
63738;SDS011;68816;45.558;10.070;2024-02-26T03:38:52;5.57;;;4.70;;
63738;SDS011;68816;45.558;10.070;2024-02-26T03:41:17;5.47;;;4.53;;
63738;SDS011;68816;45.558;10.070;2024-02-26T03:43:43;6.40;;;4.90;;
63738;SDS011;68816;45.558;10.070;2024-02-26T03:46:10;5.85;;;4.70;;
63738;SDS011;68816;45.558;10.070;2024-02-26T03:48:37;5.55;;;4.88;;
63738;SDS011;68816;45.558;10.070;2024-02-26T03:51:03;5.93;;;4.70;;
63738;SDS011;68816;45.558;10.070;2024-02-26T03:53:29;6.22;;;4.63;;
63738;SDS011;68816;45.558;10.070;2024-02-26T03:55:54;6.22;;;4.57;;
63738;SDS011;68816;45.558;10.070;2024-02-26T03:58:20;5.90;;;4.60;;
63738;SDS011;68816;45.558;10.070;2024-02-26T04:00:46;7.50;;;4.90;;
63738;SDS011;68816;45.558;10.070;2024-02-26T04:03:14;6.80;;;5.13;;
63738;SDS011;68816;45.558;10.070;2024-02-26T04:05:40;6.50;;;4.25;;
63738;SDS011;68816;45.558;10.070;2024-02-26T04:08:06;5.55;;;4.45;;
63738;SDS011;68816;45.558;10.070;2024-02-26T04:10:33;6.28;;;4.32;;
63738;SDS011;68816;45.558;10.070;2024-02-26T04:13:00;6.72;;;4.28;;
63738;SDS011;68816;45.558;10.070;2024-02-26T04:15:26;6.75;;;4.03;;
63738;SDS011;68816;45.558;10.070;2024-02-26T04:17:52;6.43;;;4.70;;
63738;SDS011;68816;45.558;10.070;2024-02-26T04:20:17;8.20;;;4.50;;
63738;SDS011;68816;45.558;10.070;2024-02-26T04:22:43;5.18;;;4.32;;
63738;SDS011;68816;45.558;10.070;2024-02-26T04:25:09;5.72;;;3.92;;
63738;SDS011;68816;45.558;10.070;2024-02-26T04:27:35;8.10;;;4.45;;
63738;SDS011;68816;45.558;10.070;2024-02-26T04:30:01;5.68;;;4.47;;
63738;SDS011;68816;45.558;10.070;2024-02-26T04:32:26;6.53;;;4.28;;
63738;SDS011;68816;45.558;10.070;2024-02-26T04:34:53;7.97;;;4.55;;
63738;SDS011;68816;45.558;10.070;2024-02-26T04:37:18;17.40;;;4.68;;
63738;SDS011;68816;45.558;10.070;2024-02-26T04:39:44;5.15;;;4.03;;
63738;SDS011;68816;45.558;10.070;2024-02-26T04:42:10;7.53;;;4.40;;
63738;SDS011;68816;45.558;10.070;2024-02-26T04:44:36;7.03;;;4.00;;
63738;SDS011;68816;45.558;10.070;2024-02-26T04:47:02;6.65;;;4.57;;
63738;SDS011;68816;45.558;10.070;2024-02-26T04:49:27;8.60;;;4.68;;
63738;SDS011;68816;45.558;10.070;2024-02-26T04:51:53;7.82;;;5.60;;
63738;SDS011;68816;45.558;10.070;2024-02-26T04:54:19;7.18;;;4.93;;
63738;SDS011;68816;45.558;10.070;2024-02-26T04:56:44;7.10;;;4.47;;
63738;SDS011;68816;45.558;10.070;2024-02-26T04:59:10;6.53;;;4.38;;
63738;SDS011;68816;45.558;10.070;2024-02-26T05:01:36;8.45;;;5.10;;
63738;SDS011;68816;45.558;10.070;2024-02-26T05:04:02;5.88;;;4.75;;
63738;SDS011;68816;45.558;10.070;2024-02-26T05:06:28;6.93;;;4.65;;
63738;SDS011;68816;45.558;10.070;2024-02-26T05:08:54;6.90;;;5.22;;
63738;SDS011;68816;45.558;10.070;2024-02-26T05:11:20;7.03;;;5.30;;
63738;SDS011;68816;45.558;10.070;2024-02-26T05:13:45;6.57;;;5.13;;
63738;SDS011;68816;45.558;10.070;2024-02-26T05:16:11;6.60;;;4.78;;
63738;SDS011;68816;45.558;10.070;2024-02-26T05:18:36;7.35;;;4.53;;
63738;SDS011;68816;45.558;10.070;2024-02-26T05:21:02;7.03;;;4.43;;
63738;SDS011;68816;45.558;10.070;2024-02-26T05:23:28;7.18;;;5.05;;
63738;SDS011;68816;45.558;10.070;2024-02-26T05:25:54;6.55;;;4.25;;
63738;SDS011;68816;45.558;10.070;2024-02-26T05:28:20;9.07;;;5.75;;
63738;SDS011;68816;45.558;10.070;2024-02-26T05:30:45;7.60;;;5.13;;
63738;SDS011;68816;45.558;10.070;2024-02-26T05:33:11;7.03;;;5.55;;
63738;SDS011;68816;45.558;10.070;2024-02-26T05:35:37;6.82;;;4.45;;
63738;SDS011;68816;45.558;10.070;2024-02-26T05:38:03;7.07;;;5.53;;
63738;SDS011;68816;45.558;10.070;2024-02-26T05:40:29;6.63;;;5.57;;
63738;SDS011;68816;45.558;10.070;2024-02-26T05:42:55;6.93;;;5.78;;
63738;SDS011;68816;45.558;10.070;2024-02-26T05:45:21;8.48;;;5.40;;
63738;SDS011;68816;45.558;10.070;2024-02-26T05:47:47;9.77;;;6.20;;
63738;SDS011;68816;45.558;10.070;2024-02-26T05:50:13;8.35;;;5.65;;
63738;SDS011;68816;45.558;10.070;2024-02-26T05:52:39;9.57;;;5.93;;
63738;SDS011;68816;45.558;10.070;2024-02-26T05:55:05;9.02;;;6.20;;
63738;SDS011;68816;45.558;10.070;2024-02-26T05:57:32;9.35;;;6.53;;
63738;SDS011;68816;45.558;10.070;2024-02-26T05:59:58;9.98;;;6.57;;
63738;SDS011;68816;45.558;10.070;2024-02-26T06:02:28;8.88;;;6.55;;
63738;SDS011;68816;45.558;10.070;2024-02-26T06:04:54;11.55;;;7.28;;
63738;SDS011;68816;45.558;10.070;2024-02-26T06:07:20;17.35;;;11.30;;
63738;SDS011;68816;45.558;10.070;2024-02-26T06:09:46;15.90;;;11.25;;
63738;SDS011;68816;45.558;10.070;2024-02-26T06:12:11;16.73;;;11.23;;
63738;SDS011;68816;45.558;10.070;2024-02-26T06:14:37;10.02;;;8.70;;
63738;SDS011;68816;45.558;10.070;2024-02-26T06:17:02;13.43;;;10.30;;
63738;SDS011;68816;45.558;10.070;2024-02-26T06:19:28;12.88;;;8.73;;
63738;SDS011;68816;45.558;10.070;2024-02-26T06:21:54;12.25;;;8.23;;
63738;SDS011;68816;45.558;10.070;2024-02-26T06:24:19;12.15;;;8.07;;
63738;SDS011;68816;45.558;10.070;2024-02-26T06:26:47;10.38;;;7.65;;
63738;SDS011;68816;45.558;10.070;2024-02-26T06:29:13;9.80;;;6.88;;
63738;SDS011;68816;45.558;10.070;2024-02-26T06:31:38;11.63;;;7.00;;
63738;SDS011;68816;45.558;10.070;2024-02-26T06:34:04;10.32;;;6.93;;
63738;SDS011;68816;45.558;10.070;2024-02-26T06:36:30;9.95;;;7.25;;
63738;SDS011;68816;45.558;10.070;2024-02-26T06:38:57;11.50;;;8.23;;
63738;SDS011;68816;45.558;10.070;2024-02-26T06:41:22;11.75;;;8.40;;
63738;SDS011;68816;45.558;10.070;2024-02-26T06:43:53;13.50;;;8.68;;
63738;SDS011;68816;45.558;10.070;2024-02-26T06:46:19;11.85;;;8.65;;
63738;SDS011;68816;45.558;10.070;2024-02-26T06:48:45;11.70;;;7.80;;
63738;SDS011;68816;45.558;10.070;2024-02-26T06:51:10;10.60;;;7.15;;
63738;SDS011;68816;45.558;10.070;2024-02-26T06:53:36;8.55;;;6.95;;
63738;SDS011;68816;45.558;10.070;2024-02-26T06:56:02;10.77;;;7.07;;
63738;SDS011;68816;45.558;10.070;2024-02-26T06:58:27;10.05;;;7.50;;
63738;SDS011;68816;45.558;10.070;2024-02-26T07:00:53;12.10;;;8.00;;
63738;SDS011;68816;45.558;10.070;2024-02-26T07:03:18;13.10;;;7.82;;
63738;SDS011;68816;45.558;10.070;2024-02-26T07:05:44;15.10;;;8.05;;
63738;SDS011;68816;45.558;10.070;2024-02-26T07:08:11;12.40;;;8.02;;
63738;SDS011;68816;45.558;10.070;2024-02-26T07:10:36;12.82;;;8.98;;
63738;SDS011;68816;45.558;10.070;2024-02-26T07:13:02;13.60;;;9.70;;
63738;SDS011;68816;45.558;10.070;2024-02-26T07:15:28;16.25;;;9.43;;
63738;SDS011;68816;45.558;10.070;2024-02-26T07:17:54;12.75;;;9.30;;
63738;SDS011;68816;45.558;10.070;2024-02-26T07:20:19;15.15;;;9.63;;
63738;SDS011;68816;45.558;10.070;2024-02-26T07:22:45;13.32;;;8.75;;
63738;SDS011;68816;45.558;10.070;2024-02-26T07:25:11;12.82;;;9.23;;
63738;SDS011;68816;45.558;10.070;2024-02-26T07:27:39;13.05;;;9.20;;
63738;SDS011;68816;45.558;10.070;2024-02-26T07:30:05;13.52;;;8.50;;
63738;SDS011;68816;45.558;10.070;2024-02-26T07:32:33;18.70;;;9.25;;
63738;SDS011;68816;45.558;10.070;2024-02-26T07:34:59;15.55;;;8.95;;
63738;SDS011;68816;45.558;10.070;2024-02-26T07:37:24;12.23;;;8.43;;
63738;SDS011;68816;45.558;10.070;2024-02-26T07:39:50;11.98;;;7.35;;
63738;SDS011;68816;45.558;10.070;2024-02-26T07:42:16;8.95;;;6.95;;
63738;SDS011;68816;45.558;10.070;2024-02-26T07:44:41;11.07;;;7.28;;
63738;SDS011;68816;45.558;10.070;2024-02-26T07:47:08;10.88;;;7.07;;
63738;SDS011;68816;45.558;10.070;2024-02-26T07:49:34;8.82;;;7.18;;
63738;SDS011;68816;45.558;10.070;2024-02-26T07:52:00;10.23;;;7.50;;
63738;SDS011;68816;45.558;10.070;2024-02-26T07:54:26;10.25;;;7.45;;
63738;SDS011;68816;45.558;10.070;2024-02-26T07:56:51;11.50;;;7.72;;
63738;SDS011;68816;45.558;10.070;2024-02-26T07:59:17;9.63;;;7.03;;
63738;SDS011;68816;45.558;10.070;2024-02-26T08:01:43;9.57;;;7.20;;
63738;SDS011;68816;45.558;10.070;2024-02-26T08:04:08;8.20;;;6.07;;
63738;SDS011;68816;45.558;10.070;2024-02-26T08:06:34;9.20;;;6.57;;
63738;SDS011;68816;45.558;10.070;2024-02-26T08:09:00;7.50;;;6.05;;
63738;SDS011;68816;45.558;10.070;2024-02-26T08:11:26;10.30;;;6.50;;
63738;SDS011;68816;45.558;10.070;2024-02-26T08:13:53;9.70;;;6.20;;
63738;SDS011;68816;45.558;10.070;2024-02-26T08:16:18;10.85;;;6.95;;
63738;SDS011;68816;45.558;10.070;2024-02-26T08:18:44;10.23;;;7.03;;
63738;SDS011;68816;45.558;10.070;2024-02-26T08:21:09;12.15;;;7.10;;
63738;SDS011;68816;45.558;10.070;2024-02-26T08:23:35;11.98;;;6.65;;
63738;SDS011;68816;45.558;10.070;2024-02-26T08:26:01;10.77;;;7.35;;
63738;SDS011;68816;45.558;10.070;2024-02-26T08:28:26;10.45;;;7.30;;
63738;SDS011;68816;45.558;10.070;2024-02-26T08:30:52;10.43;;;6.85;;
63738;SDS011;68816;45.558;10.070;2024-02-26T08:33:17;9.10;;;6.63;;
63738;SDS011;68816;45.558;10.070;2024-02-26T08:35:43;11.63;;;7.15;;
63738;SDS011;68816;45.558;10.070;2024-02-26T08:38:09;12.25;;;8.75;;
63738;SDS011;68816;45.558;10.070;2024-02-26T08:40:34;12.65;;;8.07;;
63738;SDS011;68816;45.558;10.070;2024-02-26T08:43:00;15.60;;;10.70;;
63738;SDS011;68816;45.558;10.070;2024-02-26T08:45:26;21.02;;;13.07;;
63738;SDS011;68816;45.558;10.070;2024-02-26T08:47:52;16.02;;;10.52;;
63738;SDS011;68816;45.558;10.070;2024-02-26T08:50:17;18.33;;;10.90;;
63738;SDS011;68816;45.558;10.070;2024-02-26T08:52:43;19.65;;;12.55;;
63738;SDS011;68816;45.558;10.070;2024-02-26T08:55:11;13.52;;;9.30;;
63738;SDS011;68816;45.558;10.070;2024-02-26T08:57:38;13.40;;;7.90;;
63738;SDS011;68816;45.558;10.070;2024-02-26T09:00:04;11.73;;;7.85;;
63738;SDS011;68816;45.558;10.070;2024-02-26T09:02:30;12.32;;;8.18;;
63738;SDS011;68816;45.558;10.070;2024-02-26T09:04:56;17.83;;;11.50;;
63738;SDS011;68816;45.558;10.070;2024-02-26T09:07:22;22.17;;;13.00;;
63738;SDS011;68816;45.558;10.070;2024-02-26T09:09:47;19.13;;;11.50;;
63738;SDS011;68816;45.558;10.070;2024-02-26T09:12:13;17.23;;;12.05;;
63738;SDS011;68816;45.558;10.070;2024-02-26T09:14:39;19.80;;;10.80;;
63738;SDS011;68816;45.558;10.070;2024-02-26T09:17:04;17.55;;;11.35;;
63738;SDS011;68816;45.558;10.070;2024-02-26T09:19:31;20.35;;;13.45;;
63738;SDS011;68816;45.558;10.070;2024-02-26T09:21:56;18.23;;;12.75;;
63738;SDS011;68816;45.558;10.070;2024-02-26T09:24:23;16.98;;;11.70;;
63738;SDS011;68816;45.558;10.070;2024-02-26T09:26:49;16.67;;;11.57;;
63738;SDS011;68816;45.558;10.070;2024-02-26T09:29:15;19.77;;;11.95;;
63738;SDS011;68816;45.558;10.070;2024-02-26T09:31:40;18.30;;;13.05;;
63738;SDS011;68816;45.558;10.070;2024-02-26T09:34:06;21.20;;;14.05;;
63738;SDS011;68816;45.558;10.070;2024-02-26T09:36:33;17.60;;;13.95;;
63738;SDS011;68816;45.558;10.070;2024-02-26T09:38:59;20.25;;;14.35;;
63738;SDS011;68816;45.558;10.070;2024-02-26T09:41:27;21.35;;;15.73;;
63738;SDS011;68816;45.558;10.070;2024-02-26T09:43:55;21.20;;;15.00;;
63738;SDS011;68816;45.558;10.070;2024-02-26T09:46:22;22.13;;;15.75;;
63738;SDS011;68816;45.558;10.070;2024-02-26T09:48:49;18.58;;;13.60;;
63738;SDS011;68816;45.558;10.070;2024-02-26T09:51:15;19.02;;;14.88;;
63738;SDS011;68816;45.558;10.070;2024-02-26T09:53:43;22.10;;;14.88;;
63738;SDS011;68816;45.558;10.070;2024-02-26T09:56:11;23.95;;;15.50;;
63738;SDS011;68816;45.558;10.070;2024-02-26T09:58:41;20.33;;;13.13;;
63738;SDS011;68816;45.558;10.070;2024-02-26T10:01:11;19.00;;;13.50;;
63738;SDS011;68816;45.558;10.070;2024-02-26T10:03:41;19.98;;;13.70;;
63738;SDS011;68816;45.558;10.070;2024-02-26T10:06:10;17.90;;;12.90;;
63738;SDS011;68816;45.558;10.070;2024-02-26T10:08:37;15.55;;;12.30;;
63738;SDS011;68816;45.558;10.070;2024-02-26T10:11:09;17.02;;;12.23;;
63738;SDS011;68816;45.558;10.070;2024-02-26T10:13:35;18.58;;;12.07;;
63738;SDS011;68816;45.558;10.070;2024-02-26T10:16:02;14.75;;;11.75;;
63738;SDS011;68816;45.558;10.070;2024-02-26T10:18:44;16.63;;;11.98;;
63738;SDS011;68816;45.558;10.070;2024-02-26T10:21:17;13.82;;;10.65;;
63738;SDS011;68816;45.558;10.070;2024-02-26T10:23:45;14.05;;;10.52;;
63738;SDS011;68816;45.558;10.070;2024-02-26T10:26:11;17.85;;;12.65;;
63738;SDS011;68816;45.558;10.070;2024-02-26T10:28:38;15.80;;;10.40;;
63738;SDS011;68816;45.558;10.070;2024-02-26T10:31:05;13.52;;;8.75;;
63738;SDS011;68816;45.558;10.070;2024-02-26T10:33:34;15.98;;;12.10;;
63738;SDS011;68816;45.558;10.070;2024-02-26T10:36:02;16.13;;;10.70;;
63738;SDS011;68816;45.558;10.070;2024-02-26T10:38:29;10.93;;;8.75;;
63738;SDS011;68816;45.558;10.070;2024-02-26T10:40:55;11.82;;;9.63;;
63738;SDS011;68816;45.558;10.070;2024-02-26T10:43:21;13.30;;;9.13;;
63738;SDS011;68816;45.558;10.070;2024-02-26T10:45:46;12.43;;;8.75;;
63738;SDS011;68816;45.558;10.070;2024-02-26T10:48:15;12.68;;;9.77;;
63738;SDS011;68816;45.558;10.070;2024-02-26T10:50:42;11.50;;;9.60;;
63738;SDS011;68816;45.558;10.070;2024-02-26T10:53:18;13.65;;;9.80;;
63738;SDS011;68816;45.558;10.070;2024-02-26T10:55:52;12.68;;;10.15;;
63738;SDS011;68816;45.558;10.070;2024-02-26T10:58:29;15.85;;;10.52;;
63738;SDS011;68816;45.558;10.070;2024-02-26T11:00:57;14.95;;;9.82;;
63738;SDS011;68816;45.558;10.070;2024-02-26T11:03:23;13.38;;;8.27;;
63738;SDS011;68816;45.558;10.070;2024-02-26T11:05:50;12.20;;;8.32;;
63738;SDS011;68816;45.558;10.070;2024-02-26T11:08:19;10.55;;;7.55;;
63738;SDS011;68816;45.558;10.070;2024-02-26T11:10:47;8.50;;;6.45;;
63738;SDS011;68816;45.558;10.070;2024-02-26T11:13:14;14.70;;;8.52;;
63738;SDS011;68816;45.558;10.070;2024-02-26T11:15:44;15.13;;;8.85;;
63738;SDS011;68816;45.558;10.070;2024-02-26T11:18:13;8.60;;;5.80;;
63738;SDS011;68816;45.558;10.070;2024-02-26T11:20:40;7.40;;;4.97;;
63738;SDS011;68816;45.558;10.070;2024-02-26T11:23:07;6.47;;;4.20;;
63738;SDS011;68816;45.558;10.070;2024-02-26T11:25:34;7.10;;;4.80;;
63738;SDS011;68816;45.558;10.070;2024-02-26T11:28:03;9.38;;;5.95;;
63738;SDS011;68816;45.558;10.070;2024-02-26T11:30:32;7.05;;;5.93;;
63738;SDS011;68816;45.558;10.070;2024-02-26T11:33:03;9.65;;;6.35;;
63738;SDS011;68816;45.558;10.070;2024-02-26T11:35:31;9.13;;;6.15;;
63738;SDS011;68816;45.558;10.070;2024-02-26T11:37:57;10.48;;;6.25;;
63738;SDS011;68816;45.558;10.070;2024-02-26T11:40:23;7.07;;;5.28;;
63738;SDS011;68816;45.558;10.070;2024-02-26T11:42:50;6.60;;;4.90;;
63738;SDS011;68816;45.558;10.070;2024-02-26T11:48:12;9.52;;;4.57;;
63738;SDS011;68816;45.558;10.070;2024-02-26T11:50:39;7.37;;;5.53;;
63738;SDS011;68816;45.558;10.070;2024-02-26T11:59:08;7.28;;;5.20;;
63738;SDS011;68816;45.558;10.070;2024-02-26T12:01:36;8.13;;;4.78;;
63738;SDS011;68816;45.558;10.070;2024-02-26T12:04:02;9.30;;;5.25;;
63738;SDS011;68816;45.558;10.070;2024-02-26T12:06:29;7.78;;;4.63;;
63738;SDS011;68816;45.558;10.070;2024-02-26T12:08:56;10.98;;;7.72;;
63738;SDS011;68816;45.558;10.070;2024-02-26T12:11:21;8.48;;;6.07;;
63738;SDS011;68816;45.558;10.070;2024-02-26T12:13:47;8.10;;;5.30;;
63738;SDS011;68816;45.558;10.070;2024-02-26T12:16:35;8.50;;;6.40;;
63738;SDS011;68816;45.558;10.070;2024-02-26T12:19:05;9.73;;;7.20;;
63738;SDS011;68816;45.558;10.070;2024-02-26T12:21:33;10.77;;;6.43;;
63738;SDS011;68816;45.558;10.070;2024-02-26T12:24:12;8.02;;;5.70;;
63738;SDS011;68816;45.558;10.070;2024-02-26T12:26:39;7.22;;;5.10;;
63738;SDS011;68816;45.558;10.070;2024-02-26T12:29:05;9.27;;;5.68;;
63738;SDS011;68816;45.558;10.070;2024-02-26T12:31:32;9.98;;;6.45;;
63738;SDS011;68816;45.558;10.070;2024-02-26T12:34:01;9.15;;;5.45;;
63738;SDS011;68816;45.558;10.070;2024-02-26T12:36:27;8.30;;;5.18;;
63738;SDS011;68816;45.558;10.070;2024-02-26T12:38:53;9.02;;;5.78;;
63738;SDS011;68816;45.558;10.070;2024-02-26T12:41:19;7.88;;;5.85;;
63738;SDS011;68816;45.558;10.070;2024-02-26T12:43:46;8.13;;;5.93;;
63738;SDS011;68816;45.558;10.070;2024-02-26T12:46:12;7.40;;;5.13;;
63738;SDS011;68816;45.558;10.070;2024-02-26T12:48:44;5.90;;;4.07;;
63738;SDS011;68816;45.558;10.070;2024-02-26T12:51:12;6.25;;;4.53;;
63738;SDS011;68816;45.558;10.070;2024-02-26T12:53:41;7.63;;;4.53;;
63738;SDS011;68816;45.558;10.070;2024-02-26T12:56:09;6.75;;;4.45;;
63738;SDS011;68816;45.558;10.070;2024-02-26T12:58:38;7.55;;;4.30;;
63738;SDS011;68816;45.558;10.070;2024-02-26T13:01:05;6.03;;;3.92;;
63738;SDS011;68816;45.558;10.070;2024-02-26T13:03:34;5.43;;;4.28;;
63738;SDS011;68816;45.558;10.070;2024-02-26T13:06:00;5.75;;;4.03;;
63738;SDS011;68816;45.558;10.070;2024-02-26T13:08:28;5.93;;;4.07;;
63738;SDS011;68816;45.558;10.070;2024-02-26T13:10:53;4.68;;;3.42;;
63738;SDS011;68816;45.558;10.070;2024-02-26T13:13:19;5.80;;;4.28;;
63738;SDS011;68816;45.558;10.070;2024-02-26T13:15:47;5.63;;;3.63;;
63738;SDS011;68816;45.558;10.070;2024-02-26T13:18:13;3.95;;;3.10;;
63738;SDS011;68816;45.558;10.070;2024-02-26T13:20:40;4.82;;;3.30;;
63738;SDS011;68816;45.558;10.070;2024-02-26T13:23:12;3.45;;;2.83;;
63738;SDS011;68816;45.558;10.070;2024-02-26T13:25:38;4.60;;;3.47;;
63738;SDS011;68816;45.558;10.070;2024-02-26T13:28:14;4.18;;;2.78;;
63738;SDS011;68816;45.558;10.070;2024-02-26T13:30:41;4.50;;;3.28;;
63738;SDS011;68816;45.558;10.070;2024-02-26T13:33:15;4.43;;;3.00;;
63738;SDS011;68816;45.558;10.070;2024-02-26T13:35:40;5.72;;;2.70;;
63738;SDS011;68816;45.558;10.070;2024-02-26T13:38:06;3.67;;;2.42;;
63738;SDS011;68816;45.558;10.070;2024-02-26T13:40:32;5.03;;;2.92;;
63738;SDS011;68816;45.558;10.070;2024-02-26T13:42:59;2.70;;;1.63;;
63738;SDS011;68816;45.558;10.070;2024-02-26T13:45:25;3.08;;;1.90;;
63738;SDS011;68816;45.558;10.070;2024-02-26T13:47:51;3.72;;;2.08;;
63738;SDS011;68816;45.558;10.070;2024-02-26T13:50:17;5.18;;;2.92;;
63738;SDS011;68816;45.558;10.070;2024-02-26T13:52:46;6.53;;;3.00;;
63738;SDS011;68816;45.558;10.070;2024-02-26T13:55:12;5.97;;;3.25;;
63738;SDS011;68816;45.558;10.070;2024-02-26T13:57:39;7.00;;;2.90;;
63738;SDS011;68816;45.558;10.070;2024-02-26T14:00:05;5.47;;;3.33;;
63738;SDS011;68816;45.558;10.070;2024-02-26T14:02:34;8.38;;;4.10;;
63738;SDS011;68816;45.558;10.070;2024-02-26T14:05:01;7.03;;;4.45;;
63738;SDS011;68816;45.558;10.070;2024-02-26T14:07:29;5.70;;;3.20;;
63738;SDS011;68816;45.558;10.070;2024-02-26T14:09:57;5.40;;;3.13;;
63738;SDS011;68816;45.558;10.070;2024-02-26T14:12:23;2.65;;;1.98;;
63738;SDS011;68816;45.558;10.070;2024-02-26T14:14:48;4.70;;;2.40;;
63738;SDS011;68816;45.558;10.070;2024-02-26T14:17:14;5.60;;;2.55;;
63738;SDS011;68816;45.558;10.070;2024-02-26T14:19:40;7.78;;;3.30;;
63738;SDS011;68816;45.558;10.070;2024-02-26T14:22:12;6.00;;;2.75;;
63738;SDS011;68816;45.558;10.070;2024-02-26T14:24:41;5.57;;;2.33;;
63738;SDS011;68816;45.558;10.070;2024-02-26T14:27:10;6.13;;;3.17;;
63738;SDS011;68816;45.558;10.070;2024-02-26T14:29:43;2.72;;;1.98;;
63738;SDS011;68816;45.558;10.070;2024-02-26T14:32:09;3.58;;;2.08;;
63738;SDS011;68816;45.558;10.070;2024-02-26T14:34:35;7.57;;;3.65;;